sensor_id;sensor_type;location;lat;lon;timestamp;temperature;humidity
6146;DHT22;3104;50.348;7.620;2022-10-12T00:01:36;6.90;99.90
6146;DHT22;3104;50.348;7.620;2022-10-12T00:04:02;6.80;99.90
6146;DHT22;3104;50.348;7.620;2022-10-12T00:06:27;6.80;99.90
6146;DHT22;3104;50.348;7.620;2022-10-12T00:08:53;6.70;99.90
6146;DHT22;3104;50.348;7.620;2022-10-12T00:11:22;6.50;99.90
6146;DHT22;3104;50.348;7.620;2022-10-12T00:13:48;6.40;99.90
6146;DHT22;3104;50.348;7.620;2022-10-12T00:16:15;6.40;99.90
6146;DHT22;3104;50.348;7.620;2022-10-12T00:18:41;6.30;99.90
6146;DHT22;3104;50.348;7.620;2022-10-12T00:21:12;6.40;99.90
6146;DHT22;3104;50.348;7.620;2022-10-12T00:23:39;6.50;99.90
6146;DHT22;3104;50.348;7.620;2022-10-12T00:26:08;6.40;99.90
6146;DHT22;3104;50.348;7.620;2022-10-12T00:28:37;6.30;99.90
6146;DHT22;3104;50.348;7.620;2022-10-12T00:31:11;6.30;99.90
6146;DHT22;3104;50.348;7.620;2022-10-12T00:33:38;6.20;99.90
6146;DHT22;3104;50.348;7.620;2022-10-12T00:36:31;6.10;99.90
6146;DHT22;3104;50.348;7.620;2022-10-12T00:38:58;6.10;99.90
6146;DHT22;3104;50.348;7.620;2022-10-12T00:41:27;6.10;99.90
6146;DHT22;3104;50.348;7.620;2022-10-12T00:43:53;6.10;99.90
6146;DHT22;3104;50.348;7.620;2022-10-12T00:49:17;6.10;99.90
6146;DHT22;3104;50.348;7.620;2022-10-12T00:51:50;6.10;99.90
6146;DHT22;3104;50.348;7.620;2022-10-12T00:54:22;6.00;99.90
6146;DHT22;3104;50.348;7.620;2022-10-12T00:56:50;6.00;99.90
6146;DHT22;3104;50.348;7.620;2022-10-12T00:59:35;6.20;99.90
6146;DHT22;3104;50.348;7.620;2022-10-12T01:02:02;6.30;99.90
6146;DHT22;3104;50.348;7.620;2022-10-12T01:04:29;6.20;99.90
6146;DHT22;3104;50.348;7.620;2022-10-12T01:06:56;6.30;99.90
6146;DHT22;3104;50.348;7.620;2022-10-12T01:09:21;6.50;99.90
6146;DHT22;3104;50.348;7.620;2022-10-12T01:11:47;6.50;99.90
6146;DHT22;3104;50.348;7.620;2022-10-12T01:14:13;6.30;99.90
6146;DHT22;3104;50.348;7.620;2022-10-12T01:16:56;6.10;99.90
6146;DHT22;3104;50.348;7.620;2022-10-12T01:22:21;5.90;99.90
6146;DHT22;3104;50.348;7.620;2022-10-12T01:24:52;5.90;99.90
6146;DHT22;3104;50.348;7.620;2022-10-12T01:27:46;5.80;99.90
6146;DHT22;3104;50.348;7.620;2022-10-12T01:30:31;5.80;99.90
6146;DHT22;3104;50.348;7.620;2022-10-12T01:38:55;5.60;99.90
6146;DHT22;3104;50.348;7.620;2022-10-12T01:41:28;5.70;99.90
6146;DHT22;3104;50.348;7.620;2022-10-12T01:43:54;5.60;99.90
6146;DHT22;3104;50.348;7.620;2022-10-12T01:48:50;5.70;99.90
6146;DHT22;3104;50.348;7.620;2022-10-12T01:51:23;5.60;99.90
6146;DHT22;3104;50.348;7.620;2022-10-12T01:54:06;5.60;99.90
6146;DHT22;3104;50.348;7.620;2022-10-12T01:56:41;5.50;99.90
6146;DHT22;3104;50.348;7.620;2022-10-12T02:01:54;5.40;99.90
6146;DHT22;3104;50.348;7.620;2022-10-12T02:07:43;5.40;99.90
6146;DHT22;3104;50.348;7.620;2022-10-12T02:10:17;5.50;99.90
6146;DHT22;3104;50.348;7.620;2022-10-12T02:12:46;5.50;99.90
6146;DHT22;3104;50.348;7.620;2022-10-12T02:15:13;5.70;99.90
6146;DHT22;3104;50.348;7.620;2022-10-12T02:17:41;5.80;99.90
6146;DHT22;3104;50.348;7.620;2022-10-12T02:20:10;5.70;99.90
6146;DHT22;3104;50.348;7.620;2022-10-12T02:22:37;5.70;99.90
6146;DHT22;3104;50.348;7.620;2022-10-12T02:25:07;5.60;99.90
6146;DHT22;3104;50.348;7.620;2022-10-12T02:27:41;5.60;99.90
6146;DHT22;3104;50.348;7.620;2022-10-12T02:30:08;5.60;99.90
6146;DHT22;3104;50.348;7.620;2022-10-12T02:32:53;5.70;99.90
6146;DHT22;3104;50.348;7.620;2022-10-12T02:35:30;5.90;99.90
6146;DHT22;3104;50.348;7.620;2022-10-12T02:38:03;5.80;99.90
6146;DHT22;3104;50.348;7.620;2022-10-12T02:40:50;5.80;99.90
6146;DHT22;3104;50.348;7.620;2022-10-12T02:43:36;5.80;99.90
6146;DHT22;3104;50.348;7.620;2022-10-12T02:46:06;5.80;99.90
6146;DHT22;3104;50.348;7.620;2022-10-12T02:48:33;5.90;99.90
6146;DHT22;3104;50.348;7.620;2022-10-12T02:51:01;5.90;99.90
6146;DHT22;3104;50.348;7.620;2022-10-12T02:53:29;6.00;99.90
6146;DHT22;3104;50.348;7.620;2022-10-12T02:56:02;6.30;99.90
6146;DHT22;3104;50.348;7.620;2022-10-12T02:58:28;6.30;99.90
6146;DHT22;3104;50.348;7.620;2022-10-12T03:00:54;6.10;99.90
6146;DHT22;3104;50.348;7.620;2022-10-12T03:03:19;6.10;99.90
6146;DHT22;3104;50.348;7.620;2022-10-12T03:05:45;6.00;99.90
6146;DHT22;3104;50.348;7.620;2022-10-12T03:08:11;6.00;99.90
6146;DHT22;3104;50.348;7.620;2022-10-12T03:10:36;5.90;99.90
6146;DHT22;3104;50.348;7.620;2022-10-12T03:13:02;5.90;99.90
6146;DHT22;3104;50.348;7.620;2022-10-12T03:15:27;5.90;99.90
6146;DHT22;3104;50.348;7.620;2022-10-12T03:17:53;5.90;99.90
6146;DHT22;3104;50.348;7.620;2022-10-12T03:20:19;6.10;99.90
6146;DHT22;3104;50.348;7.620;2022-10-12T03:22:44;6.10;99.90
6146;DHT22;3104;50.348;7.620;2022-10-12T03:25:10;6.00;99.90
6146;DHT22;3104;50.348;7.620;2022-10-12T03:27:35;6.00;99.90
6146;DHT22;3104;50.348;7.620;2022-10-12T03:30:01;5.90;99.90
6146;DHT22;3104;50.348;7.620;2022-10-12T03:32:26;6.20;99.90
6146;DHT22;3104;50.348;7.620;2022-10-12T03:34:52;6.00;99.90
6146;DHT22;3104;50.348;7.620;2022-10-12T03:37:17;5.90;99.90
6146;DHT22;3104;50.348;7.620;2022-10-12T03:39:43;5.90;99.90
6146;DHT22;3104;50.348;7.620;2022-10-12T03:42:09;6.00;99.90
6146;DHT22;3104;50.348;7.620;2022-10-12T03:44:35;6.00;99.90
6146;DHT22;3104;50.348;7.620;2022-10-12T03:47:00;6.00;99.90
6146;DHT22;3104;50.348;7.620;2022-10-12T03:49:26;5.80;99.90
6146;DHT22;3104;50.348;7.620;2022-10-12T03:51:51;5.60;99.90
6146;DHT22;3104;50.348;7.620;2022-10-12T03:54:17;5.80;99.90
6146;DHT22;3104;50.348;7.620;2022-10-12T03:56:42;5.70;99.90
6146;DHT22;3104;50.348;7.620;2022-10-12T03:59:08;5.80;99.90
6146;DHT22;3104;50.348;7.620;2022-10-12T04:01:33;5.80;99.90
6146;DHT22;3104;50.348;7.620;2022-10-12T04:03:59;5.70;99.90
6146;DHT22;3104;50.348;7.620;2022-10-12T04:06:25;5.70;99.90
6146;DHT22;3104;50.348;7.620;2022-10-12T04:08:50;5.60;99.90
6146;DHT22;3104;50.348;7.620;2022-10-12T04:11:16;5.70;99.90
6146;DHT22;3104;50.348;7.620;2022-10-12T04:13:42;5.70;99.90
6146;DHT22;3104;50.348;7.620;2022-10-12T04:16:08;5.70;99.90
6146;DHT22;3104;50.348;7.620;2022-10-12T04:18:34;5.60;99.90
6146;DHT22;3104;50.348;7.620;2022-10-12T04:21:00;5.60;99.90
6146;DHT22;3104;50.348;7.620;2022-10-12T04:23:26;5.60;99.90
6146;DHT22;3104;50.348;7.620;2022-10-12T04:25:52;5.70;99.90
6146;DHT22;3104;50.348;7.620;2022-10-12T04:28:17;5.50;99.90
6146;DHT22;3104;50.348;7.620;2022-10-12T04:30:44;5.50;99.90
6146;DHT22;3104;50.348;7.620;2022-10-12T04:33:10;5.40;99.90
6146;DHT22;3104;50.348;7.620;2022-10-12T04:35:36;5.50;99.90
6146;DHT22;3104;50.348;7.620;2022-10-12T04:38:02;5.40;99.90
6146;DHT22;3104;50.348;7.620;2022-10-12T04:40:28;5.30;99.90
6146;DHT22;3104;50.348;7.620;2022-10-12T04:42:53;5.30;99.90
6146;DHT22;3104;50.348;7.620;2022-10-12T04:45:20;5.30;99.90
6146;DHT22;3104;50.348;7.620;2022-10-12T04:47:46;5.40;99.90
6146;DHT22;3104;50.348;7.620;2022-10-12T04:50:11;5.50;99.90
6146;DHT22;3104;50.348;7.620;2022-10-12T04:52:37;5.60;99.90
6146;DHT22;3104;50.348;7.620;2022-10-12T04:55:03;5.60;99.90
6146;DHT22;3104;50.348;7.620;2022-10-12T04:57:28;5.40;99.90
6146;DHT22;3104;50.348;7.620;2022-10-12T04:59:54;5.30;99.90
6146;DHT22;3104;50.348;7.620;2022-10-12T05:02:20;5.30;99.90
6146;DHT22;3104;50.348;7.620;2022-10-12T05:04:46;5.20;99.90
6146;DHT22;3104;50.348;7.620;2022-10-12T05:07:11;5.30;99.90
6146;DHT22;3104;50.348;7.620;2022-10-12T05:09:37;5.30;99.90
6146;DHT22;3104;50.348;7.620;2022-10-12T05:12:02;5.60;99.90
6146;DHT22;3104;50.348;7.620;2022-10-12T05:14:28;5.80;99.90
6146;DHT22;3104;50.348;7.620;2022-10-12T05:16:54;5.60;99.90
6146;DHT22;3104;50.348;7.620;2022-10-12T05:19:19;5.50;99.90
6146;DHT22;3104;50.348;7.620;2022-10-12T05:21:45;5.50;99.90
6146;DHT22;3104;50.348;7.620;2022-10-12T05:24:10;5.90;99.90
6146;DHT22;3104;50.348;7.620;2022-10-12T05:26:36;6.10;99.90
6146;DHT22;3104;50.348;7.620;2022-10-12T05:29:01;6.10;99.90
6146;DHT22;3104;50.348;7.620;2022-10-12T05:31:27;6.20;99.90
6146;DHT22;3104;50.348;7.620;2022-10-12T05:33:52;6.10;99.90
6146;DHT22;3104;50.348;7.620;2022-10-12T05:36:18;5.90;99.90
6146;DHT22;3104;50.348;7.620;2022-10-12T05:38:43;5.80;99.90
6146;DHT22;3104;50.348;7.620;2022-10-12T05:41:09;5.50;99.90
6146;DHT22;3104;50.348;7.620;2022-10-12T05:43:35;5.30;99.90
6146;DHT22;3104;50.348;7.620;2022-10-12T05:46:00;5.20;99.90
6146;DHT22;3104;50.348;7.620;2022-10-12T05:48:26;5.20;99.90
6146;DHT22;3104;50.348;7.620;2022-10-12T05:50:52;5.20;99.90
6146;DHT22;3104;50.348;7.620;2022-10-12T05:53:21;5.20;99.90
6146;DHT22;3104;50.348;7.620;2022-10-12T05:55:55;5.30;99.90
6146;DHT22;3104;50.348;7.620;2022-10-12T05:58:22;5.50;99.90
6146;DHT22;3104;50.348;7.620;2022-10-12T06:00:48;5.50;99.90
6146;DHT22;3104;50.348;7.620;2022-10-12T06:03:13;5.30;99.90
6146;DHT22;3104;50.348;7.620;2022-10-12T06:05:39;5.40;99.90
6146;DHT22;3104;50.348;7.620;2022-10-12T06:08:04;5.40;99.90
6146;DHT22;3104;50.348;7.620;2022-10-12T06:10:30;5.20;99.90
6146;DHT22;3104;50.348;7.620;2022-10-12T06:12:56;5.20;99.90
6146;DHT22;3104;50.348;7.620;2022-10-12T06:15:21;5.20;99.90
6146;DHT22;3104;50.348;7.620;2022-10-12T06:17:47;5.10;99.90
6146;DHT22;3104;50.348;7.620;2022-10-12T06:20:13;5.20;99.90
6146;DHT22;3104;50.348;7.620;2022-10-12T06:22:38;5.30;99.90
6146;DHT22;3104;50.348;7.620;2022-10-12T06:25:04;5.30;99.90
6146;DHT22;3104;50.348;7.620;2022-10-12T06:27:30;5.30;99.90
6146;DHT22;3104;50.348;7.620;2022-10-12T06:29:55;5.20;99.90
6146;DHT22;3104;50.348;7.620;2022-10-12T06:32:21;5.20;99.90
6146;DHT22;3104;50.348;7.620;2022-10-12T06:34:46;5.20;99.90
6146;DHT22;3104;50.348;7.620;2022-10-12T06:37:12;5.30;99.90
6146;DHT22;3104;50.348;7.620;2022-10-12T06:39:37;5.30;99.90
6146;DHT22;3104;50.348;7.620;2022-10-12T06:42:03;5.30;99.90
6146;DHT22;3104;50.348;7.620;2022-10-12T06:44:29;5.20;99.90
6146;DHT22;3104;50.348;7.620;2022-10-12T06:46:54;5.20;99.90
6146;DHT22;3104;50.348;7.620;2022-10-12T06:49:20;5.30;99.90
6146;DHT22;3104;50.348;7.620;2022-10-12T06:51:46;5.30;99.90
6146;DHT22;3104;50.348;7.620;2022-10-12T07:04:17;5.60;99.90
6146;DHT22;3104;50.348;7.620;2022-10-12T07:06:43;5.80;99.90
6146;DHT22;3104;50.348;7.620;2022-10-12T07:09:09;5.80;99.90
6146;DHT22;3104;50.348;7.620;2022-10-12T07:11:34;5.90;99.90
6146;DHT22;3104;50.348;7.620;2022-10-12T07:14:00;6.00;99.90
6146;DHT22;3104;50.348;7.620;2022-10-12T07:16:26;5.90;99.90
6146;DHT22;3104;50.348;7.620;2022-10-12T07:18:51;6.10;99.90
6146;DHT22;3104;50.348;7.620;2022-10-12T07:21:17;6.10;99.90
6146;DHT22;3104;50.348;7.620;2022-10-12T07:23:42;6.00;99.90
6146;DHT22;3104;50.348;7.620;2022-10-12T07:26:08;5.90;99.90
6146;DHT22;3104;50.348;7.620;2022-10-12T07:28:34;5.80;99.90
6146;DHT22;3104;50.348;7.620;2022-10-12T07:31:05;5.90;99.90
6146;DHT22;3104;50.348;7.620;2022-10-12T07:33:34;5.70;99.90
6146;DHT22;3104;50.348;7.620;2022-10-12T07:36:00;5.60;99.90
6146;DHT22;3104;50.348;7.620;2022-10-12T07:38:27;5.80;99.90
6146;DHT22;3104;50.348;7.620;2022-10-12T07:40:52;5.80;99.90
6146;DHT22;3104;50.348;7.620;2022-10-12T07:43:18;5.90;99.90
6146;DHT22;3104;50.348;7.620;2022-10-12T07:45:44;6.10;99.90
6146;DHT22;3104;50.348;7.620;2022-10-12T07:48:10;6.10;99.90
6146;DHT22;3104;50.348;7.620;2022-10-12T07:50:36;6.20;99.90
6146;DHT22;3104;50.348;7.620;2022-10-12T07:53:02;6.30;99.90
6146;DHT22;3104;50.348;7.620;2022-10-12T07:55:29;6.40;99.90
6146;DHT22;3104;50.348;7.620;2022-10-12T07:57:57;6.50;99.90
6146;DHT22;3104;50.348;7.620;2022-10-12T08:00:23;6.70;99.90
6146;DHT22;3104;50.348;7.620;2022-10-12T08:02:48;6.60;99.90
6146;DHT22;3104;50.348;7.620;2022-10-12T08:05:14;6.60;99.90
6146;DHT22;3104;50.348;7.620;2022-10-12T08:07:39;6.60;99.90
6146;DHT22;3104;50.348;7.620;2022-10-12T08:10:05;6.70;99.90
6146;DHT22;3104;50.348;7.620;2022-10-12T08:12:31;6.50;99.90
6146;DHT22;3104;50.348;7.620;2022-10-12T08:14:56;6.40;99.90
6146;DHT22;3104;50.348;7.620;2022-10-12T08:17:22;6.20;99.90
6146;DHT22;3104;50.348;7.620;2022-10-12T08:19:47;6.10;99.90
6146;DHT22;3104;50.348;7.620;2022-10-12T08:22:13;6.30;99.90
6146;DHT22;3104;50.348;7.620;2022-10-12T08:24:39;6.50;99.90
6146;DHT22;3104;50.348;7.620;2022-10-12T08:27:04;6.40;99.90
6146;DHT22;3104;50.348;7.620;2022-10-12T08:29:30;6.60;99.90
6146;DHT22;3104;50.348;7.620;2022-10-12T08:31:55;6.90;99.90
6146;DHT22;3104;50.348;7.620;2022-10-12T08:34:21;6.90;99.90
6146;DHT22;3104;50.348;7.620;2022-10-12T08:36:49;7.10;99.90
6146;DHT22;3104;50.348;7.620;2022-10-12T08:39:16;7.00;99.90
6146;DHT22;3104;50.348;7.620;2022-10-12T08:49:57;7.50;99.90
6146;DHT22;3104;50.348;7.620;2022-10-12T08:52:46;7.80;99.90
6146;DHT22;3104;50.348;7.620;2022-10-12T08:55:24;7.90;99.90
6146;DHT22;3104;50.348;7.620;2022-10-12T08:57:52;7.70;99.90
6146;DHT22;3104;50.348;7.620;2022-10-12T09:00:18;7.80;99.90
6146;DHT22;3104;50.348;7.620;2022-10-12T09:05:31;8.60;99.90
6146;DHT22;3104;50.348;7.620;2022-10-12T09:08:05;8.40;99.90
6146;DHT22;3104;50.348;7.620;2022-10-12T09:11:02;8.60;99.90
6146;DHT22;3104;50.348;7.620;2022-10-12T09:13:54;8.60;99.90
6146;DHT22;3104;50.348;7.620;2022-10-12T09:16:26;8.80;99.90
6146;DHT22;3104;50.348;7.620;2022-10-12T09:19:21;8.80;99.90
6146;DHT22;3104;50.348;7.620;2022-10-12T09:21:47;8.20;99.90
6146;DHT22;3104;50.348;7.620;2022-10-12T09:24:19;8.40;99.90
6146;DHT22;3104;50.348;7.620;2022-10-12T09:26:50;8.60;99.90
6146;DHT22;3104;50.348;7.620;2022-10-12T09:34:35;9.30;99.90
6146;DHT22;3104;50.348;7.620;2022-10-12T09:37:02;9.50;99.90
6146;DHT22;3104;50.348;7.620;2022-10-12T09:39:34;9.70;99.90
6146;DHT22;3104;50.348;7.620;2022-10-12T09:42:01;9.60;99.90
6146;DHT22;3104;50.348;7.620;2022-10-12T09:44:45;9.70;99.90
6146;DHT22;3104;50.348;7.620;2022-10-12T09:49:50;10.50;99.90
6146;DHT22;3104;50.348;7.620;2022-10-12T09:52:18;11.40;99.90
6146;DHT22;3104;50.348;7.620;2022-10-12T09:54:47;11.90;99.90
6146;DHT22;3104;50.348;7.620;2022-10-12T09:57:24;12.50;99.90
6146;DHT22;3104;50.348;7.620;2022-10-12T09:59:50;13.00;99.90
6146;DHT22;3104;50.348;7.620;2022-10-12T10:02:18;13.20;99.90
6146;DHT22;3104;50.348;7.620;2022-10-12T10:04:46;12.90;99.90
6146;DHT22;3104;50.348;7.620;2022-10-12T10:07:19;13.30;99.90
6146;DHT22;3104;50.348;7.620;2022-10-12T10:09:46;13.50;99.90
6146;DHT22;3104;50.348;7.620;2022-10-12T10:14:42;13.30;99.90
6146;DHT22;3104;50.348;7.620;2022-10-12T10:17:17;13.60;99.90
6146;DHT22;3104;50.348;7.620;2022-10-12T10:19:49;13.50;99.90
6146;DHT22;3104;50.348;7.620;2022-10-12T10:22:15;13.40;99.90
6146;DHT22;3104;50.348;7.620;2022-10-12T10:24:41;13.10;99.90
6146;DHT22;3104;50.348;7.620;2022-10-12T10:27:06;13.80;99.90
6146;DHT22;3104;50.348;7.620;2022-10-12T10:29:37;14.00;99.90
6146;DHT22;3104;50.348;7.620;2022-10-12T10:34:40;14.20;99.90
6146;DHT22;3104;50.348;7.620;2022-10-12T10:37:14;13.70;99.90
6146;DHT22;3104;50.348;7.620;2022-10-12T10:39:46;14.00;99.90
6146;DHT22;3104;50.348;7.620;2022-10-12T10:42:25;13.70;99.90
6146;DHT22;3104;50.348;7.620;2022-10-12T10:44:58;13.60;99.90
6146;DHT22;3104;50.348;7.620;2022-10-12T10:47:24;13.80;99.90
6146;DHT22;3104;50.348;7.620;2022-10-12T10:49:54;14.10;99.90
6146;DHT22;3104;50.348;7.620;2022-10-12T10:57:57;14.20;99.90
6146;DHT22;3104;50.348;7.620;2022-10-12T11:00:24;14.40;99.90
6146;DHT22;3104;50.348;7.620;2022-10-12T11:02:57;14.60;99.90
6146;DHT22;3104;50.348;7.620;2022-10-12T11:05:29;15.10;99.90
6146;DHT22;3104;50.348;7.620;2022-10-12T11:07:58;14.70;99.90
6146;DHT22;3104;50.348;7.620;2022-10-12T11:13:46;13.30;99.90
6146;DHT22;3104;50.348;7.620;2022-10-12T11:15:56;13.90;99.90
6146;DHT22;3104;50.348;7.620;2022-10-12T11:21:07;14.60;99.90
6146;DHT22;3104;50.348;7.620;2022-10-12T11:23:52;14.80;99.90
6146;DHT22;3104;50.348;7.620;2022-10-12T11:29:11;14.90;99.90
6146;DHT22;3104;50.348;7.620;2022-10-12T11:31:42;15.00;99.90
6146;DHT22;3104;50.348;7.620;2022-10-12T11:34:15;15.10;99.90
6146;DHT22;3104;50.348;7.620;2022-10-12T11:36:44;15.20;99.90
6146;DHT22;3104;50.348;7.620;2022-10-12T11:39:27;15.10;99.90
6146;DHT22;3104;50.348;7.620;2022-10-12T11:41:58;14.60;99.90
6146;DHT22;3104;50.348;7.620;2022-10-12T11:44:33;15.00;99.90
6146;DHT22;3104;50.348;7.620;2022-10-12T11:47:09;14.60;99.90
6146;DHT22;3104;50.348;7.620;2022-10-12T11:49:54;14.30;99.90
6146;DHT22;3104;50.348;7.620;2022-10-12T11:52:22;14.30;99.90
6146;DHT22;3104;50.348;7.620;2022-10-12T11:57:39;14.90;99.90
6146;DHT22;3104;50.348;7.620;2022-10-12T12:00:14;15.10;99.90
6146;DHT22;3104;50.348;7.620;2022-10-12T12:02:47;15.30;99.90
6146;DHT22;3104;50.348;7.620;2022-10-12T12:05:15;15.40;99.90
6146;DHT22;3104;50.348;7.620;2022-10-12T12:16:19;16.20;99.90
6146;DHT22;3104;50.348;7.620;2022-10-12T12:18:30;16.30;99.90
6146;DHT22;3104;50.348;7.620;2022-10-12T12:21:08;16.60;99.90
6146;DHT22;3104;50.348;7.620;2022-10-12T12:23:51;16.20;99.90
6146;DHT22;3104;50.348;7.620;2022-10-12T12:26:20;15.60;99.90
6146;DHT22;3104;50.348;7.620;2022-10-12T12:28:48;15.50;99.90
6146;DHT22;3104;50.348;7.620;2022-10-12T12:31:25;15.60;99.90
6146;DHT22;3104;50.348;7.620;2022-10-12T12:34:01;15.50;99.90
6146;DHT22;3104;50.348;7.620;2022-10-12T12:36:31;15.20;99.90
6146;DHT22;3104;50.348;7.620;2022-10-12T12:39:06;15.20;99.90
6146;DHT22;3104;50.348;7.620;2022-10-12T12:41:57;15.30;99.90
6146;DHT22;3104;50.348;7.620;2022-10-12T12:49:42;15.90;99.90
6146;DHT22;3104;50.348;7.620;2022-10-12T12:52:27;16.10;99.90
6146;DHT22;3104;50.348;7.620;2022-10-12T13:11:45;16.60;99.90
6146;DHT22;3104;50.348;7.620;2022-10-12T13:14:37;16.70;99.90
6146;DHT22;3104;50.348;7.620;2022-10-12T13:19:43;16.80;99.90
6146;DHT22;3104;50.348;7.620;2022-10-12T13:22:25;16.80;99.90
6146;DHT22;3104;50.348;7.620;2022-10-12T13:25:05;16.70;99.90
6146;DHT22;3104;50.348;7.620;2022-10-12T13:27:40;16.60;99.90
6146;DHT22;3104;50.348;7.620;2022-10-12T13:33:19;16.10;99.90
6146;DHT22;3104;50.348;7.620;2022-10-12T13:38:34;16.50;99.90
6146;DHT22;3104;50.348;7.620;2022-10-12T13:46:47;16.80;99.90
6146;DHT22;3104;50.348;7.620;2022-10-12T13:51:38;17.20;99.90
6146;DHT22;3104;50.348;7.620;2022-10-12T13:54:26;17.00;99.90
6146;DHT22;3104;50.348;7.620;2022-10-12T13:56:59;16.80;99.90
6146;DHT22;3104;50.348;7.620;2022-10-12T13:59:28;17.20;99.90
6146;DHT22;3104;50.348;7.620;2022-10-12T14:01:57;17.40;99.90
6146;DHT22;3104;50.348;7.620;2022-10-12T14:04:33;17.50;99.90
6146;DHT22;3104;50.348;7.620;2022-10-12T14:07:04;17.40;99.90
6146;DHT22;3104;50.348;7.620;2022-10-12T14:09:42;17.30;99.90
6146;DHT22;3104;50.348;7.620;2022-10-12T14:12:09;17.10;99.90
6146;DHT22;3104;50.348;7.620;2022-10-12T14:14:36;16.80;99.90
6146;DHT22;3104;50.348;7.620;2022-10-12T14:17:03;16.70;99.90
6146;DHT22;3104;50.348;7.620;2022-10-12T14:19:41;16.70;99.90
6146;DHT22;3104;50.348;7.620;2022-10-12T14:22:11;16.60;99.90
6146;DHT22;3104;50.348;7.620;2022-10-12T14:24:37;16.60;99.90
6146;DHT22;3104;50.348;7.620;2022-10-12T14:27:07;16.60;99.90
6146;DHT22;3104;50.348;7.620;2022-10-12T14:29:40;16.80;99.90
6146;DHT22;3104;50.348;7.620;2022-10-12T14:32:33;16.60;99.90
6146;DHT22;3104;50.348;7.620;2022-10-12T14:37:45;16.80;99.90
6146;DHT22;3104;50.348;7.620;2022-10-12T14:40:27;16.70;99.90
6146;DHT22;3104;50.348;7.620;2022-10-12T14:43:39;16.70;99.90
6146;DHT22;3104;50.348;7.620;2022-10-12T14:45:45;16.80;99.90
6146;DHT22;3104;50.348;7.620;2022-10-12T14:48:16;17.20;99.90
6146;DHT22;3104;50.348;7.620;2022-10-12T14:50:43;17.40;99.90
6146;DHT22;3104;50.348;7.620;2022-10-12T14:53:11;17.00;99.90
6146;DHT22;3104;50.348;7.620;2022-10-12T14:55:37;16.90;99.90
6146;DHT22;3104;50.348;7.620;2022-10-12T14:58:02;16.80;99.90
6146;DHT22;3104;50.348;7.620;2022-10-12T15:00:33;16.90;99.90
6146;DHT22;3104;50.348;7.620;2022-10-12T15:03:00;17.00;99.90
6146;DHT22;3104;50.348;7.620;2022-10-12T15:05:27;17.20;99.90
6146;DHT22;3104;50.348;7.620;2022-10-12T15:07:56;17.40;99.90
6146;DHT22;3104;50.348;7.620;2022-10-12T15:10:23;17.40;99.90
6146;DHT22;3104;50.348;7.620;2022-10-12T15:12:49;17.20;99.90
6146;DHT22;3104;50.348;7.620;2022-10-12T15:15:38;17.30;99.90
6146;DHT22;3104;50.348;7.620;2022-10-12T15:18:05;17.60;99.90
6146;DHT22;3104;50.348;7.620;2022-10-12T15:20:32;17.70;99.90
6146;DHT22;3104;50.348;7.620;2022-10-12T15:22:58;17.90;99.90
6146;DHT22;3104;50.348;7.620;2022-10-12T15:25:48;18.00;99.90
6146;DHT22;3104;50.348;7.620;2022-10-12T15:28:14;18.10;99.90
6146;DHT22;3104;50.348;7.620;2022-10-12T15:30:40;18.00;99.90
6146;DHT22;3104;50.348;7.620;2022-10-12T15:33:06;17.90;99.90
6146;DHT22;3104;50.348;7.620;2022-10-12T15:35:33;17.80;99.90
6146;DHT22;3104;50.348;7.620;2022-10-12T15:38:00;17.90;99.90
6146;DHT22;3104;50.348;7.620;2022-10-12T15:40:27;18.20;99.90
6146;DHT22;3104;50.348;7.620;2022-10-12T15:42:53;18.30;99.90
6146;DHT22;3104;50.348;7.620;2022-10-12T15:45:29;18.50;99.90
6146;DHT22;3104;50.348;7.620;2022-10-12T15:47:55;18.40;99.90
6146;DHT22;3104;50.348;7.620;2022-10-12T15:50:24;18.30;99.90
6146;DHT22;3104;50.348;7.620;2022-10-12T15:52:50;18.30;99.90
6146;DHT22;3104;50.348;7.620;2022-10-12T15:55:21;18.10;99.90
6146;DHT22;3104;50.348;7.620;2022-10-12T15:57:47;18.10;99.90
6146;DHT22;3104;50.348;7.620;2022-10-12T16:00:14;18.10;99.90
6146;DHT22;3104;50.348;7.620;2022-10-12T16:02:40;18.00;99.90
6146;DHT22;3104;50.348;7.620;2022-10-12T16:05:27;18.10;99.90
6146;DHT22;3104;50.348;7.620;2022-10-12T16:07:53;18.00;99.90
6146;DHT22;3104;50.348;7.620;2022-10-12T16:10:22;17.90;99.90
6146;DHT22;3104;50.348;7.620;2022-10-12T16:12:49;17.70;99.90
6146;DHT22;3104;50.348;7.620;2022-10-12T16:15:20;17.40;99.90
6146;DHT22;3104;50.348;7.620;2022-10-12T16:17:47;17.20;99.90
6146;DHT22;3104;50.348;7.620;2022-10-12T16:20:14;17.10;99.90
6146;DHT22;3104;50.348;7.620;2022-10-12T16:22:40;16.90;99.90
6146;DHT22;3104;50.348;7.620;2022-10-12T16:25:08;16.80;99.90
6146;DHT22;3104;50.348;7.620;2022-10-12T16:27:34;16.50;99.90
6146;DHT22;3104;50.348;7.620;2022-10-12T16:30:00;16.30;99.90
6146;DHT22;3104;50.348;7.620;2022-10-12T16:32:26;16.30;99.90
6146;DHT22;3104;50.348;7.620;2022-10-12T16:34:52;16.60;99.90
6146;DHT22;3104;50.348;7.620;2022-10-12T16:37:18;16.40;99.90
6146;DHT22;3104;50.348;7.620;2022-10-12T16:39:44;16.00;99.90
6146;DHT22;3104;50.348;7.620;2022-10-12T16:42:10;15.80;99.90
6146;DHT22;3104;50.348;7.620;2022-10-12T16:44:35;15.70;99.90
6146;DHT22;3104;50.348;7.620;2022-10-12T16:47:01;15.70;99.90
6146;DHT22;3104;50.348;7.620;2022-10-12T16:49:27;15.90;99.90
6146;DHT22;3104;50.348;7.620;2022-10-12T16:51:53;15.90;99.90
6146;DHT22;3104;50.348;7.620;2022-10-12T16:54:19;15.80;99.90
6146;DHT22;3104;50.348;7.620;2022-10-12T16:56:45;15.80;99.90
6146;DHT22;3104;50.348;7.620;2022-10-12T16:59:10;15.60;99.90
6146;DHT22;3104;50.348;7.620;2022-10-12T17:01:36;15.30;99.90
6146;DHT22;3104;50.348;7.620;2022-10-12T17:04:02;15.10;99.90
6146;DHT22;3104;50.348;7.620;2022-10-12T17:06:28;15.20;99.90
6146;DHT22;3104;50.348;7.620;2022-10-12T17:08:56;15.10;99.90
6146;DHT22;3104;50.348;7.620;2022-10-12T17:11:22;14.90;99.90
6146;DHT22;3104;50.348;7.620;2022-10-12T17:13:47;15.10;99.90
6146;DHT22;3104;50.348;7.620;2022-10-12T17:16:13;15.20;99.90
6146;DHT22;3104;50.348;7.620;2022-10-12T17:19:00;15.10;99.90
6146;DHT22;3104;50.348;7.620;2022-10-12T17:21:26;14.80;99.90
6146;DHT22;3104;50.348;7.620;2022-10-12T17:23:55;14.70;99.90
6146;DHT22;3104;50.348;7.620;2022-10-12T17:26:21;14.70;99.90
6146;DHT22;3104;50.348;7.620;2022-10-12T17:28:47;14.60;99.90
6146;DHT22;3104;50.348;7.620;2022-10-12T17:31:12;14.60;99.90
6146;DHT22;3104;50.348;7.620;2022-10-12T17:33:38;14.60;99.90
6146;DHT22;3104;50.348;7.620;2022-10-12T17:36:08;14.60;99.90
6146;DHT22;3104;50.348;7.620;2022-10-12T17:38:34;14.50;99.90
6146;DHT22;3104;50.348;7.620;2022-10-12T17:41:01;14.40;99.90
6146;DHT22;3104;50.348;7.620;2022-10-12T17:43:27;14.40;99.90
6146;DHT22;3104;50.348;7.620;2022-10-12T17:45:52;14.30;99.90
6146;DHT22;3104;50.348;7.620;2022-10-12T17:48:18;14.30;99.90
6146;DHT22;3104;50.348;7.620;2022-10-12T17:50:44;14.00;99.90
6146;DHT22;3104;50.348;7.620;2022-10-12T17:53:09;13.80;99.90
6146;DHT22;3104;50.348;7.620;2022-10-12T17:55:35;13.80;99.90
6146;DHT22;3104;50.348;7.620;2022-10-12T17:58:00;13.80;99.90
6146;DHT22;3104;50.348;7.620;2022-10-12T18:00:27;14.00;99.90
6146;DHT22;3104;50.348;7.620;2022-10-12T18:02:52;14.30;99.90
6146;DHT22;3104;50.348;7.620;2022-10-12T18:05:18;14.30;99.90
6146;DHT22;3104;50.348;7.620;2022-10-12T18:07:44;14.10;99.90
6146;DHT22;3104;50.348;7.620;2022-10-12T18:10:09;13.90;99.90
6146;DHT22;3104;50.348;7.620;2022-10-12T18:12:35;13.80;99.90
6146;DHT22;3104;50.348;7.620;2022-10-12T18:15:01;13.90;99.90
6146;DHT22;3104;50.348;7.620;2022-10-12T18:17:28;13.70;99.90
6146;DHT22;3104;50.348;7.620;2022-10-12T18:19:53;13.50;99.90
6146;DHT22;3104;50.348;7.620;2022-10-12T18:22:19;13.30;99.90